sensor_id;sensor_type;location;lat;lon;timestamp;P1;durP1;ratioP1;P2;durP2;ratioP2
47669;SDS011;33408;52.062;11.722;2023-03-14T00:02:20;3.30;;;1.63;;
47669;SDS011;33408;52.062;11.722;2023-03-14T00:04:47;4.20;;;1.67;;
47669;SDS011;33408;52.062;11.722;2023-03-14T00:07:14;4.40;;;1.80;;
47669;SDS011;33408;52.062;11.722;2023-03-14T00:09:40;6.03;;;2.05;;
47669;SDS011;33408;52.062;11.722;2023-03-14T00:12:09;7.55;;;2.55;;
47669;SDS011;33408;52.062;11.722;2023-03-14T00:14:36;6.50;;;2.40;;
47669;SDS011;33408;52.062;11.722;2023-03-14T00:17:02;4.78;;;2.00;;
47669;SDS011;33408;52.062;11.722;2023-03-14T00:19:29;4.28;;;2.03;;
47669;SDS011;33408;52.062;11.722;2023-03-14T00:21:56;5.32;;;2.40;;
47669;SDS011;33408;52.062;11.722;2023-03-14T00:24:22;6.50;;;2.40;;
47669;SDS011;33408;52.062;11.722;2023-03-14T00:26:49;6.13;;;2.30;;
47669;SDS011;33408;52.062;11.722;2023-03-14T00:29:17;6.25;;;2.30;;
47669;SDS011;33408;52.062;11.722;2023-03-14T00:31:43;6.32;;;2.13;;
47669;SDS011;33408;52.062;11.722;2023-03-14T00:34:10;6.45;;;2.25;;
47669;SDS011;33408;52.062;11.722;2023-03-14T00:36:36;4.47;;;1.85;;
47669;SDS011;33408;52.062;11.722;2023-03-14T00:39:03;5.82;;;2.33;;
47669;SDS011;33408;52.062;11.722;2023-03-14T00:41:30;7.50;;;2.47;;
47669;SDS011;33408;52.062;11.722;2023-03-14T00:43:56;5.35;;;2.30;;
47669;SDS011;33408;52.062;11.722;2023-03-14T00:46:24;5.63;;;2.00;;
47669;SDS011;33408;52.062;11.722;2023-03-14T00:48:51;5.45;;;1.92;;
47669;SDS011;33408;52.062;11.722;2023-03-14T00:51:17;5.63;;;2.40;;
47669;SDS011;33408;52.062;11.722;2023-03-14T00:53:44;4.45;;;1.70;;
47669;SDS011;33408;52.062;11.722;2023-03-14T00:56:12;3.72;;;1.80;;
47669;SDS011;33408;52.062;11.722;2023-03-14T00:58:38;6.45;;;2.10;;
47669;SDS011;33408;52.062;11.722;2023-03-14T01:01:05;6.25;;;2.00;;
47669;SDS011;33408;52.062;11.722;2023-03-14T01:03:34;4.53;;;2.10;;
47669;SDS011;33408;52.062;11.722;2023-03-14T01:06:08;5.95;;;2.00;;
47669;SDS011;33408;52.062;11.722;2023-03-14T01:08:36;4.55;;;1.50;;
47669;SDS011;33408;52.062;11.722;2023-03-14T01:11:05;5.35;;;1.90;;
47669;SDS011;33408;52.062;11.722;2023-03-14T01:13:32;5.45;;;1.80;;
47669;SDS011;33408;52.062;11.722;2023-03-14T01:16:00;5.40;;;1.98;;
47669;SDS011;33408;52.062;11.722;2023-03-14T01:18:29;4.45;;;2.00;;
47669;SDS011;33408;52.062;11.722;2023-03-14T01:20:57;2.95;;;1.60;;
47669;SDS011;33408;52.062;11.722;2023-03-14T01:23:24;10.13;;;1.70;;
47669;SDS011;33408;52.062;11.722;2023-03-14T01:25:50;7.13;;;2.20;;
47669;SDS011;33408;52.062;11.722;2023-03-14T01:28:17;3.53;;;1.50;;
47669;SDS011;33408;52.062;11.722;2023-03-14T01:30:43;8.75;;;1.92;;
47669;SDS011;33408;52.062;11.722;2023-03-14T01:33:10;5.53;;;1.73;;
47669;SDS011;33408;52.062;11.722;2023-03-14T01:35:38;4.35;;;1.88;;
47669;SDS011;33408;52.062;11.722;2023-03-14T01:38:06;3.58;;;1.77;;
47669;SDS011;33408;52.062;11.722;2023-03-14T01:40:32;5.70;;;2.25;;
47669;SDS011;33408;52.062;11.722;2023-03-14T01:43:05;4.07;;;1.70;;
47669;SDS011;33408;52.062;11.722;2023-03-14T01:48:45;3.78;;;1.52;;
47669;SDS011;33408;52.062;11.722;2023-03-14T01:51:17;3.35;;;1.42;;
47669;SDS011;33408;52.062;11.722;2023-03-14T01:53:47;4.75;;;1.75;;
47669;SDS011;33408;52.062;11.722;2023-03-14T01:56:15;4.65;;;1.60;;
47669;SDS011;33408;52.062;11.722;2023-03-14T01:58:45;3.63;;;1.52;;
47669;SDS011;33408;52.062;11.722;2023-03-14T02:01:15;4.78;;;1.60;;
47669;SDS011;33408;52.062;11.722;2023-03-14T02:03:45;6.03;;;1.90;;
47669;SDS011;33408;52.062;11.722;2023-03-14T02:06:14;4.07;;;1.52;;
47669;SDS011;33408;52.062;11.722;2023-03-14T02:08:43;5.63;;;1.70;;
47669;SDS011;33408;52.062;11.722;2023-03-14T02:11:15;2.95;;;1.40;;
47669;SDS011;33408;52.062;11.722;2023-03-14T02:13:42;9.13;;;1.88;;
47669;SDS011;33408;52.062;11.722;2023-03-14T02:16:10;4.05;;;1.58;;
47669;SDS011;33408;52.062;11.722;2023-03-14T02:18:37;2.78;;;1.20;;
47669;SDS011;33408;52.062;11.722;2023-03-14T02:21:06;4.25;;;1.27;;
47669;SDS011;33408;52.062;11.722;2023-03-14T02:23:41;5.07;;;1.27;;
47669;SDS011;33408;52.062;11.722;2023-03-14T02:26:16;3.47;;;1.35;;
47669;SDS011;33408;52.062;11.722;2023-03-14T02:28:48;3.85;;;1.10;;
47669;SDS011;33408;52.062;11.722;2023-03-14T02:31:18;4.38;;;1.80;;
47669;SDS011;33408;52.062;11.722;2023-03-14T02:33:46;3.17;;;1.45;;
47669;SDS011;33408;52.062;11.722;2023-03-14T02:36:13;2.22;;;1.20;;
47669;SDS011;33408;52.062;11.722;2023-03-14T02:38:42;1.65;;;0.80;;
47669;SDS011;33408;52.062;11.722;2023-03-14T02:41:13;3.40;;;1.00;;
47669;SDS011;33408;52.062;11.722;2023-03-14T02:43:40;1.50;;;0.85;;
47669;SDS011;33408;52.062;11.722;2023-03-14T02:46:08;3.00;;;1.00;;
47669;SDS011;33408;52.062;11.722;2023-03-14T02:48:38;1.85;;;0.90;;
47669;SDS011;33408;52.062;11.722;2023-03-14T02:51:09;3.88;;;1.00;;
47669;SDS011;33408;52.062;11.722;2023-03-14T02:53:37;5.43;;;1.30;;
47669;SDS011;33408;52.062;11.722;2023-03-14T02:56:05;2.88;;;0.90;;
47669;SDS011;33408;52.062;11.722;2023-03-14T02:58:32;1.92;;;0.98;;
47669;SDS011;33408;52.062;11.722;2023-03-14T03:00:59;2.25;;;1.00;;
47669;SDS011;33408;52.062;11.722;2023-03-14T03:03:27;3.83;;;1.30;;
47669;SDS011;33408;52.062;11.722;2023-03-14T03:05:54;4.05;;;1.48;;
47669;SDS011;33408;52.062;11.722;2023-03-14T03:08:22;3.92;;;1.10;;
47669;SDS011;33408;52.062;11.722;2023-03-14T03:10:51;5.47;;;1.20;;
47669;SDS011;33408;52.062;11.722;2023-03-14T03:13:18;3.47;;;1.10;;
47669;SDS011;33408;52.062;11.722;2023-03-14T03:15:45;4.70;;;1.30;;
47669;SDS011;33408;52.062;11.722;2023-03-14T03:18:12;4.40;;;1.50;;
47669;SDS011;33408;52.062;11.722;2023-03-14T03:20:40;3.83;;;1.02;;
47669;SDS011;33408;52.062;11.722;2023-03-14T03:23:07;6.22;;;1.27;;
47669;SDS011;33408;52.062;11.722;2023-03-14T03:25:33;2.30;;;1.08;;
47669;SDS011;33408;52.062;11.722;2023-03-14T03:28:00;4.10;;;1.23;;
47669;SDS011;33408;52.062;11.722;2023-03-14T03:30:32;3.42;;;1.10;;
47669;SDS011;33408;52.062;11.722;2023-03-14T03:32:59;2.92;;;1.10;;
47669;SDS011;33408;52.062;11.722;2023-03-14T03:35:25;4.13;;;1.40;;
47669;SDS011;33408;52.062;11.722;2023-03-14T03:37:53;4.07;;;1.20;;
47669;SDS011;33408;52.062;11.722;2023-03-14T03:40:20;4.05;;;1.17;;
47669;SDS011;33408;52.062;11.722;2023-03-14T03:42:47;6.07;;;1.23;;
47669;SDS011;33408;52.062;11.722;2023-03-14T03:45:13;3.05;;;1.17;;
47669;SDS011;33408;52.062;11.722;2023-03-14T03:47:40;2.30;;;1.10;;
47669;SDS011;33408;52.062;11.722;2023-03-14T03:50:07;3.22;;;1.10;;
47669;SDS011;33408;52.062;11.722;2023-03-14T03:52:34;4.07;;;1.42;;
47669;SDS011;33408;52.062;11.722;2023-03-14T03:55:02;4.63;;;1.25;;
47669;SDS011;33408;52.062;11.722;2023-03-14T03:57:29;4.60;;;1.35;;
47669;SDS011;33408;52.062;11.722;2023-03-14T03:59:56;3.58;;;1.45;;
47669;SDS011;33408;52.062;11.722;2023-03-14T04:02:23;2.45;;;1.20;;
47669;SDS011;33408;52.062;11.722;2023-03-14T04:04:49;2.40;;;1.00;;
47669;SDS011;33408;52.062;11.722;2023-03-14T04:07:16;2.78;;;1.00;;
47669;SDS011;33408;52.062;11.722;2023-03-14T04:09:43;4.03;;;1.33;;
47669;SDS011;33408;52.062;11.722;2023-03-14T04:12:11;5.00;;;1.30;;
47669;SDS011;33408;52.062;11.722;2023-03-14T04:14:38;3.85;;;1.55;;
47669;SDS011;33408;52.062;11.722;2023-03-14T04:17:06;2.35;;;0.95;;
47669;SDS011;33408;52.062;11.722;2023-03-14T04:19:32;3.55;;;1.42;;
47669;SDS011;33408;52.062;11.722;2023-03-14T04:21:59;4.85;;;1.55;;
47669;SDS011;33408;52.062;11.722;2023-03-14T04:24:25;4.00;;;1.15;;
47669;SDS011;33408;52.062;11.722;2023-03-14T04:26:52;5.00;;;1.35;;
47669;SDS011;33408;52.062;11.722;2023-03-14T04:29:20;5.43;;;1.83;;
47669;SDS011;33408;52.062;11.722;2023-03-14T04:31:46;3.38;;;1.23;;
47669;SDS011;33408;52.062;11.722;2023-03-14T04:34:13;5.95;;;1.38;;
47669;SDS011;33408;52.062;11.722;2023-03-14T04:36:40;4.80;;;1.33;;
47669;SDS011;33408;52.062;11.722;2023-03-14T04:39:06;5.38;;;1.17;;
47669;SDS011;33408;52.062;11.722;2023-03-14T04:41:33;4.57;;;1.40;;
47669;SDS011;33408;52.062;11.722;2023-03-14T04:43:59;3.15;;;1.10;;
47669;SDS011;33408;52.062;11.722;2023-03-14T04:46:27;5.63;;;1.48;;
47669;SDS011;33408;52.062;11.722;2023-03-14T04:48:54;4.97;;;1.67;;
47669;SDS011;33408;52.062;11.722;2023-03-14T04:51:21;3.85;;;1.30;;
47669;SDS011;33408;52.062;11.722;2023-03-14T04:53:52;2.70;;;1.40;;
47669;SDS011;33408;52.062;11.722;2023-03-14T04:56:19;4.78;;;1.60;;
47669;SDS011;33408;52.062;11.722;2023-03-14T04:58:45;4.72;;;1.50;;
47669;SDS011;33408;52.062;11.722;2023-03-14T05:01:12;2.70;;;1.25;;
47669;SDS011;33408;52.062;11.722;2023-03-14T05:03:40;4.32;;;1.40;;
47669;SDS011;33408;52.062;11.722;2023-03-14T05:06:07;4.55;;;1.88;;
47669;SDS011;33408;52.062;11.722;2023-03-14T05:08:34;3.90;;;1.42;;
47669;SDS011;33408;52.062;11.722;2023-03-14T05:11:00;6.13;;;1.77;;
47669;SDS011;33408;52.062;11.722;2023-03-14T05:13:27;5.85;;;1.40;;
47669;SDS011;33408;52.062;11.722;2023-03-14T05:16:01;4.85;;;1.50;;
47669;SDS011;33408;52.062;11.722;2023-03-14T05:18:29;4.40;;;1.60;;
47669;SDS011;33408;52.062;11.722;2023-03-14T05:20:57;4.45;;;1.58;;
47669;SDS011;33408;52.062;11.722;2023-03-14T05:23:24;4.60;;;1.60;;
47669;SDS011;33408;52.062;11.722;2023-03-14T05:25:50;5.85;;;1.73;;
47669;SDS011;33408;52.062;11.722;2023-03-14T05:28:17;8.15;;;1.67;;
47669;SDS011;33408;52.062;11.722;2023-03-14T05:30:43;4.15;;;1.60;;
47669;SDS011;33408;52.062;11.722;2023-03-14T05:33:10;4.53;;;1.52;;
47669;SDS011;33408;52.062;11.722;2023-03-14T05:35:37;4.22;;;1.33;;
47669;SDS011;33408;52.062;11.722;2023-03-14T05:38:04;4.88;;;1.38;;
47669;SDS011;33408;52.062;11.722;2023-03-14T05:40:31;4.30;;;1.73;;
47669;SDS011;33408;52.062;11.722;2023-03-14T05:42:58;4.40;;;1.40;;
47669;SDS011;33408;52.062;11.722;2023-03-14T05:45:24;9.82;;;2.17;;
47669;SDS011;33408;52.062;11.722;2023-03-14T05:47:51;6.72;;;1.77;;
47669;SDS011;33408;52.062;11.722;2023-03-14T05:50:18;8.27;;;2.30;;
47669;SDS011;33408;52.062;11.722;2023-03-14T05:52:44;4.00;;;1.55;;
47669;SDS011;33408;52.062;11.722;2023-03-14T05:55:12;7.28;;;2.10;;
47669;SDS011;33408;52.062;11.722;2023-03-14T05:57:39;8.35;;;1.70;;
47669;SDS011;33408;52.062;11.722;2023-03-14T06:00:06;6.28;;;1.83;;
47669;SDS011;33408;52.062;11.722;2023-03-14T06:02:33;6.55;;;2.22;;
47669;SDS011;33408;52.062;11.722;2023-03-14T06:05:00;8.70;;;1.95;;
47669;SDS011;33408;52.062;11.722;2023-03-14T06:07:26;6.25;;;1.63;;
47669;SDS011;33408;52.062;11.722;2023-03-14T06:09:53;6.30;;;2.10;;
47669;SDS011;33408;52.062;11.722;2023-03-14T06:12:21;10.10;;;2.45;;
47669;SDS011;33408;52.062;11.722;2023-03-14T06:14:49;5.43;;;1.85;;
47669;SDS011;33408;52.062;11.722;2023-03-14T06:17:15;6.80;;;1.92;;
47669;SDS011;33408;52.062;11.722;2023-03-14T06:19:42;8.02;;;2.10;;
47669;SDS011;33408;52.062;11.722;2023-03-14T06:22:08;9.23;;;2.20;;
47669;SDS011;33408;52.062;11.722;2023-03-14T06:24:35;4.07;;;1.60;;
47669;SDS011;33408;52.062;11.722;2023-03-14T06:27:02;10.75;;;1.92;;
47669;SDS011;33408;52.062;11.722;2023-03-14T06:29:30;8.43;;;2.05;;
47669;SDS011;33408;52.062;11.722;2023-03-14T06:31:56;6.13;;;1.58;;
47669;SDS011;33408;52.062;11.722;2023-03-14T06:34:23;7.95;;;1.60;;
47669;SDS011;33408;52.062;11.722;2023-03-14T06:36:50;6.30;;;2.25;;
47669;SDS011;33408;52.062;11.722;2023-03-14T06:39:17;4.93;;;1.70;;
47669;SDS011;33408;52.062;11.722;2023-03-14T06:41:45;6.72;;;1.38;;
47669;SDS011;33408;52.062;11.722;2023-03-14T06:44:11;7.50;;;1.80;;
47669;SDS011;33408;52.062;11.722;2023-03-14T06:46:40;8.75;;;1.70;;
47669;SDS011;33408;52.062;11.722;2023-03-14T06:49:07;6.40;;;1.52;;
47669;SDS011;33408;52.062;11.722;2023-03-14T06:51:33;10.13;;;2.22;;
47669;SDS011;33408;52.062;11.722;2023-03-14T06:54:00;9.00;;;2.00;;
47669;SDS011;33408;52.062;11.722;2023-03-14T06:56:27;6.90;;;1.77;;
47669;SDS011;33408;52.062;11.722;2023-03-14T06:58:53;8.63;;;1.85;;
47669;SDS011;33408;52.062;11.722;2023-03-14T07:01:21;9.45;;;1.67;;
47669;SDS011;33408;52.062;11.722;2023-03-14T07:03:51;7.32;;;1.60;;
47669;SDS011;33408;52.062;11.722;2023-03-14T07:06:17;6.38;;;1.70;;
47669;SDS011;33408;52.062;11.722;2023-03-14T07:08:44;7.43;;;1.98;;
47669;SDS011;33408;52.062;11.722;2023-03-14T07:11:11;5.20;;;1.45;;
47669;SDS011;33408;52.062;11.722;2023-03-14T07:13:37;2.95;;;1.17;;
47669;SDS011;33408;52.062;11.722;2023-03-14T07:16:05;5.93;;;1.40;;
47669;SDS011;33408;52.062;11.722;2023-03-14T07:18:32;4.70;;;1.45;;
47669;SDS011;33408;52.062;11.722;2023-03-14T07:21:00;7.15;;;1.85;;
47669;SDS011;33408;52.062;11.722;2023-03-14T07:23:27;3.75;;;1.10;;
47669;SDS011;33408;52.062;11.722;2023-03-14T07:25:54;5.30;;;1.20;;
47669;SDS011;33408;52.062;11.722;2023-03-14T07:28:21;4.55;;;1.00;;
47669;SDS011;33408;52.062;11.722;2023-03-14T07:30:48;11.00;;;2.28;;
47669;SDS011;33408;52.062;11.722;2023-03-14T07:33:15;5.38;;;1.30;;
47669;SDS011;33408;52.062;11.722;2023-03-14T07:35:42;7.35;;;1.83;;
47669;SDS011;33408;52.062;11.722;2023-03-14T07:38:10;5.25;;;1.23;;
47669;SDS011;33408;52.062;11.722;2023-03-14T07:40:36;4.53;;;1.23;;
47669;SDS011;33408;52.062;11.722;2023-03-14T07:43:03;4.68;;;1.38;;
47669;SDS011;33408;52.062;11.722;2023-03-14T07:45:29;8.85;;;1.35;;
47669;SDS011;33408;52.062;11.722;2023-03-14T07:47:56;3.97;;;1.40;;
47669;SDS011;33408;52.062;11.722;2023-03-14T07:50:22;6.45;;;1.20;;
47669;SDS011;33408;52.062;11.722;2023-03-14T07:52:49;5.25;;;1.75;;
47669;SDS011;33408;52.062;11.722;2023-03-14T07:55:17;8.27;;;1.50;;
47669;SDS011;33408;52.062;11.722;2023-03-14T07:57:44;5.15;;;1.30;;
47669;SDS011;33408;52.062;11.722;2023-03-14T08:00:11;8.88;;;1.55;;
47669;SDS011;33408;52.062;11.722;2023-03-14T08:02:39;5.32;;;1.42;;
47669;SDS011;33408;52.062;11.722;2023-03-14T08:05:06;4.85;;;1.33;;
47669;SDS011;33408;52.062;11.722;2023-03-14T08:07:33;4.68;;;1.65;;
47669;SDS011;33408;52.062;11.722;2023-03-14T08:09:59;4.80;;;1.30;;
47669;SDS011;33408;52.062;11.722;2023-03-14T08:12:27;5.20;;;1.33;;
47669;SDS011;33408;52.062;11.722;2023-03-14T08:14:54;6.32;;;1.58;;
47669;SDS011;33408;52.062;11.722;2023-03-14T08:17:20;9.10;;;2.25;;
47669;SDS011;33408;52.062;11.722;2023-03-14T08:19:47;8.57;;;1.55;;
47669;SDS011;33408;52.062;11.722;2023-03-14T08:22:14;5.55;;;1.52;;
47669;SDS011;33408;52.062;11.722;2023-03-14T08:24:40;4.68;;;1.17;;
47669;SDS011;33408;52.062;11.722;2023-03-14T08:27:07;6.30;;;1.33;;
47669;SDS011;33408;52.062;11.722;2023-03-14T08:29:35;4.25;;;1.20;;
47669;SDS011;33408;52.062;11.722;2023-03-14T08:32:01;4.60;;;1.25;;
47669;SDS011;33408;52.062;11.722;2023-03-14T08:34:28;9.50;;;1.58;;
47669;SDS011;33408;52.062;11.722;2023-03-14T08:36:55;6.38;;;1.35;;
47669;SDS011;33408;52.062;11.722;2023-03-14T08:39:21;2.42;;;0.90;;
47669;SDS011;33408;52.062;11.722;2023-03-14T08:41:49;5.93;;;1.42;;
47669;SDS011;33408;52.062;11.722;2023-03-14T08:44:15;8.02;;;1.10;;
47669;SDS011;33408;52.062;11.722;2023-03-14T08:46:43;4.72;;;1.20;;
47669;SDS011;33408;52.062;11.722;2023-03-14T08:49:10;2.47;;;0.75;;
47669;SDS011;33408;52.062;11.722;2023-03-14T08:51:36;3.67;;;0.88;;
47669;SDS011;33408;52.062;11.722;2023-03-14T08:54:03;3.20;;;0.93;;
47669;SDS011;33408;52.062;11.722;2023-03-14T08:56:30;3.50;;;0.80;;
47669;SDS011;33408;52.062;11.722;2023-03-14T08:58:57;2.50;;;0.70;;
47669;SDS011;33408;52.062;11.722;2023-03-14T09:01:23;3.17;;;1.23;;
47669;SDS011;33408;52.062;11.722;2023-03-14T09:03:52;4.32;;;1.17;;
47669;SDS011;33408;52.062;11.722;2023-03-14T09:06:19;3.35;;;1.00;;
47669;SDS011;33408;52.062;11.722;2023-03-14T09:08:45;2.22;;;0.70;;
47669;SDS011;33408;52.062;11.722;2023-03-14T09:11:12;2.58;;;0.70;;
47669;SDS011;33408;52.062;11.722;2023-03-14T09:13:39;4.65;;;1.15;;
47669;SDS011;33408;52.062;11.722;2023-03-14T09:16:06;4.25;;;0.98;;
47669;SDS011;33408;52.062;11.722;2023-03-14T09:18:34;2.85;;;0.82;;
47669;SDS011;33408;52.062;11.722;2023-03-14T09:21:02;2.65;;;1.00;;
47669;SDS011;33408;52.062;11.722;2023-03-14T09:23:29;5.35;;;0.80;;
47669;SDS011;33408;52.062;11.722;2023-03-14T09:25:55;1.48;;;0.57;;
47669;SDS011;33408;52.062;11.722;2023-03-14T09:28:23;2.60;;;0.80;;
47669;SDS011;33408;52.062;11.722;2023-03-14T09:30:49;1.70;;;0.70;;
47669;SDS011;33408;52.062;11.722;2023-03-14T09:33:16;2.40;;;1.08;;
47669;SDS011;33408;52.062;11.722;2023-03-14T09:35:43;1.92;;;0.57;;
47669;SDS011;33408;52.062;11.722;2023-03-14T09:38:11;3.17;;;0.80;;
47669;SDS011;33408;52.062;11.722;2023-03-14T09:40:38;1.65;;;0.45;;
47669;SDS011;33408;52.062;11.722;2023-03-14T09:43:05;2.30;;;0.85;;
47669;SDS011;33408;52.062;11.722;2023-03-14T09:45:33;4.22;;;0.98;;
47669;SDS011;33408;52.062;11.722;2023-03-14T09:48:01;2.42;;;0.57;;
47669;SDS011;33408;52.062;11.722;2023-03-14T09:50:31;4.13;;;1.08;;
47669;SDS011;33408;52.062;11.722;2023-03-14T09:55:32;1.55;;;0.63;;
47669;SDS011;33408;52.062;11.722;2023-03-14T09:57:59;4.47;;;1.13;;
47669;SDS011;33408;52.062;11.722;2023-03-14T10:00:30;2.75;;;1.02;;
47669;SDS011;33408;52.062;11.722;2023-03-14T10:02:59;2.58;;;0.75;;
47669;SDS011;33408;52.062;11.722;2023-03-14T10:05:33;2.15;;;0.90;;
47669;SDS011;33408;52.062;11.722;2023-03-14T10:08:00;1.27;;;0.60;;
47669;SDS011;33408;52.062;11.722;2023-03-14T10:10:26;4.47;;;1.13;;
47669;SDS011;33408;52.062;11.722;2023-03-14T10:12:56;3.53;;;0.80;;
47669;SDS011;33408;52.062;11.722;2023-03-14T10:15:24;1.30;;;0.60;;
47669;SDS011;33408;52.062;11.722;2023-03-14T10:17:52;1.75;;;0.55;;
47669;SDS011;33408;52.062;11.722;2023-03-14T10:20:26;1.67;;;0.57;;
47669;SDS011;33408;52.062;11.722;2023-03-14T10:22:58;2.88;;;0.60;;
47669;SDS011;33408;52.062;11.722;2023-03-14T10:25:26;0.63;;;0.50;;
47669;SDS011;33408;52.062;11.722;2023-03-14T10:27:55;1.58;;;0.60;;
47669;SDS011;33408;52.062;11.722;2023-03-14T10:30:30;2.13;;;0.98;;
47669;SDS011;33408;52.062;11.722;2023-03-14T10:33:09;1.40;;;0.50;;
47669;SDS011;33408;52.062;11.722;2023-03-14T10:35:37;2.17;;;0.57;;
47669;SDS011;33408;52.062;11.722;2023-03-14T10:38:04;4.35;;;0.80;;
47669;SDS011;33408;52.062;11.722;2023-03-14T10:40:31;1.92;;;0.57;;
47669;SDS011;33408;52.062;11.722;2023-03-14T10:43:01;2.88;;;0.77;;
47669;SDS011;33408;52.062;11.722;2023-03-14T10:45:31;2.38;;;0.70;;
47669;SDS011;33408;52.062;11.722;2023-03-14T10:48:06;3.72;;;0.90;;
47669;SDS011;33408;52.062;11.722;2023-03-14T10:50:47;1.85;;;0.55;;
47669;SDS011;33408;52.062;11.722;2023-03-14T10:53:16;1.90;;;0.60;;
47669;SDS011;33408;52.062;11.722;2023-03-14T10:55:44;1.08;;;0.68;;
47669;SDS011;33408;52.062;11.722;2023-03-14T10:58:19;1.85;;;0.63;;
47669;SDS011;33408;52.062;11.722;2023-03-14T11:00:47;0.63;;;0.43;;
47669;SDS011;33408;52.062;11.722;2023-03-14T11:03:17;3.10;;;0.70;;
47669;SDS011;33408;52.062;11.722;2023-03-14T11:05:49;2.05;;;0.65;;
47669;SDS011;33408;52.062;11.722;2023-03-14T11:08:21;0.80;;;0.40;;
47669;SDS011;33408;52.062;11.722;2023-03-14T11:10:53;1.40;;;0.30;;
47669;SDS011;33408;52.062;11.722;2023-03-14T11:13:26;0.63;;;0.45;;
47669;SDS011;33408;52.062;11.722;2023-03-14T11:16:01;3.10;;;0.47;;
47669;SDS011;33408;52.062;11.722;2023-03-14T11:18:49;0.68;;;0.55;;
47669;SDS011;33408;52.062;11.722;2023-03-14T11:21:26;1.75;;;0.40;;
47669;SDS011;33408;52.062;11.722;2023-03-14T11:24:00;0.67;;;0.30;;
47669;SDS011;33408;52.062;11.722;2023-03-14T11:26:41;0.37;;;0.30;;
47669;SDS011;33408;52.062;11.722;2023-03-14T11:29:19;2.50;;;0.40;;
47669;SDS011;33408;52.062;11.722;2023-03-14T11:31:47;0.85;;;0.40;;
47669;SDS011;33408;52.062;11.722;2023-03-14T11:34:15;1.00;;;0.55;;
47669;SDS011;33408;52.062;11.722;2023-03-14T11:36:48;1.55;;;0.50;;
47669;SDS011;33408;52.062;11.722;2023-03-14T11:39:20;1.80;;;0.40;;
47669;SDS011;33408;52.062;11.722;2023-03-14T11:41:47;3.78;;;0.52;;
47669;SDS011;33408;52.062;11.722;2023-03-14T11:44:19;0.68;;;0.22;;
47669;SDS011;33408;52.062;11.722;2023-03-14T11:46:49;0.98;;;0.40;;
47669;SDS011;33408;52.062;11.722;2023-03-14T11:49:23;2.60;;;0.43;;
47669;SDS011;33408;52.062;11.722;2023-03-14T11:51:57;0.50;;;0.30;;
47669;SDS011;33408;52.062;11.722;2023-03-14T11:54:29;3.25;;;0.52;;
47669;SDS011;33408;52.062;11.722;2023-03-14T11:57:02;0.85;;;0.30;;
47669;SDS011;33408;52.062;11.722;2023-03-14T11:59:33;2.08;;;0.60;;
47669;SDS011;33408;52.062;11.722;2023-03-14T12:02:09;0.10;;;0.10;;
47669;SDS011;33408;52.062;11.722;2023-03-14T12:04:49;0.68;;;0.40;;
47669;SDS011;33408;52.062;11.722;2023-03-14T12:07:26;0.57;;;0.30;;
47669;SDS011;33408;52.062;11.722;2023-03-14T12:10:01;1.40;;;0.45;;
47669;SDS011;33408;52.062;11.722;2023-03-14T12:12:29;1.08;;;0.30;;
47669;SDS011;33408;52.062;11.722;2023-03-14T12:14:58;0.93;;;0.40;;
47669;SDS011;33408;52.062;11.722;2023-03-14T12:17:27;0.30;;;0.30;;
47669;SDS011;33408;52.062;11.722;2023-03-14T12:20:01;0.82;;;0.40;;
47669;SDS011;33408;52.062;11.722;2023-03-14T12:22:33;0.30;;;0.30;;
47669;SDS011;33408;52.062;11.722;2023-03-14T12:25:02;0.77;;;0.35;;
47669;SDS011;33408;52.062;11.722;2023-03-14T12:30:32;5.32;;;0.60;;
47669;SDS011;33408;52.062;11.722;2023-03-14T12:35:59;1.10;;;0.38;;
47669;SDS011;33408;52.062;11.722;2023-03-14T12:38:45;0.45;;;0.30;;
47669;SDS011;33408;52.062;11.722;2023-03-14T12:41:19;0.90;;;0.40;;
47669;SDS011;33408;52.062;11.722;2023-03-14T12:43:48;1.10;;;0.43;;
47669;SDS011;33408;52.062;11.722;2023-03-14T12:46:23;1.75;;;0.32;;
47669;SDS011;33408;52.062;11.722;2023-03-14T12:48:56;1.42;;;0.43;;
47669;SDS011;33408;52.062;11.722;2023-03-14T12:51:34;2.58;;;0.50;;
47669;SDS011;33408;52.062;11.722;2023-03-14T12:57:10;0.52;;;0.40;;
47669;SDS011;33408;52.062;11.722;2023-03-14T12:59:46;3.60;;;1.53;;
47669;SDS011;33408;52.062;11.722;2023-03-14T13:02:25;1.35;;;0.50;;
47669;SDS011;33408;52.062;11.722;2023-03-14T13:05:00;0.55;;;0.50;;
47669;SDS011;33408;52.062;11.722;2023-03-14T13:10:32;2.63;;;0.73;;
47669;SDS011;33408;52.062;11.722;2023-03-14T13:13:12;3.05;;;0.82;;
47669;SDS011;33408;52.062;11.722;2023-03-14T13:15:44;1.73;;;0.65;;
47669;SDS011;33408;52.062;11.722;2023-03-14T13:18:14;1.00;;;0.70;;
47669;SDS011;33408;52.062;11.722;2023-03-14T13:20:44;1.50;;;0.50;;
47669;SDS011;33408;52.062;11.722;2023-03-14T13:23:21;1.77;;;0.50;;
47669;SDS011;33408;52.062;11.722;2023-03-14T13:25:48;0.60;;;0.40;;
47669;SDS011;33408;52.062;11.722;2023-03-14T13:28:15;0.73;;;0.50;;
47669;SDS011;33408;52.062;11.722;2023-03-14T13:30:43;0.75;;;0.40;;
47669;SDS011;33408;52.062;11.722;2023-03-14T13:33:12;1.75;;;0.43;;
47669;SDS011;33408;52.062;11.722;2023-03-14T13:35:43;1.25;;;0.50;;
47669;SDS011;33408;52.062;11.722;2023-03-14T13:38:18;0.60;;;0.40;;
47669;SDS011;33408;52.062;11.722;2023-03-14T13:40:46;1.35;;;0.40;;
47669;SDS011;33408;52.062;11.722;2023-03-14T13:43:14;0.50;;;0.30;;
47669;SDS011;33408;52.062;11.722;2023-03-14T13:45:43;0.43;;;0.30;;
47669;SDS011;33408;52.062;11.722;2023-03-14T13:48:12;1.58;;;0.50;;
47669;SDS011;33408;52.062;11.722;2023-03-14T13:50:45;8.68;;;1.60;;
47669;SDS011;33408;52.062;11.722;2023-03-14T13:53:15;6.25;;;1.20;;
47669;SDS011;33408;52.062;11.722;2023-03-14T13:55:41;3.33;;;0.70;;
47669;SDS011;33408;52.062;11.722;2023-03-14T13:58:13;2.45;;;0.50;;
47669;SDS011;33408;52.062;11.722;2023-03-14T14:00:53;5.35;;;0.80;;
47669;SDS011;33408;52.062;11.722;2023-03-14T14:03:26;1.77;;;0.63;;
47669;SDS011;33408;52.062;11.722;2023-03-14T14:05:55;1.80;;;0.68;;
47669;SDS011;33408;52.062;11.722;2023-03-14T14:08:24;1.95;;;0.80;;
47669;SDS011;33408;52.062;11.722;2023-03-14T14:10:52;2.33;;;0.90;;
47669;SDS011;33408;52.062;11.722;2023-03-14T14:13:23;1.63;;;0.75;;
47669;SDS011;33408;52.062;11.722;2023-03-14T14:15:53;5.13;;;0.55;;
47669;SDS011;33408;52.062;11.722;2023-03-14T14:18:21;1.27;;;0.77;;
47669;SDS011;33408;52.062;11.722;2023-03-14T14:20:54;0.82;;;0.50;;
47669;SDS011;33408;52.062;11.722;2023-03-14T14:23:21;1.13;;;0.70;;
47669;SDS011;33408;52.062;11.722;2023-03-14T14:25:54;0.63;;;0.63;;
47669;SDS011;33408;52.062;11.722;2023-03-14T14:28:23;1.60;;;0.80;;
47669;SDS011;33408;52.062;11.722;2023-03-14T14:30:59;1.42;;;0.80;;
47669;SDS011;33408;52.062;11.722;2023-03-14T14:33:28;3.28;;;0.80;;
47669;SDS011;33408;52.062;11.722;2023-03-14T14:35:57;1.35;;;0.80;;
47669;SDS011;33408;52.062;11.722;2023-03-14T14:38:25;1.95;;;0.90;;
47669;SDS011;33408;52.062;11.722;2023-03-14T14:40:53;2.15;;;0.80;;
47669;SDS011;33408;52.062;11.722;2023-03-14T14:43:26;0.77;;;0.63;;
47669;SDS011;33408;52.062;11.722;2023-03-14T14:45:55;1.67;;;0.90;;
47669;SDS011;33408;52.062;11.722;2023-03-14T14:48:23;1.65;;;0.70;;
47669;SDS011;33408;52.062;11.722;2023-03-14T14:50:58;0.82;;;0.70;;
47669;SDS011;33408;52.062;11.722;2023-03-14T14:53:28;1.90;;;1.05;;
47669;SDS011;33408;52.062;11.722;2023-03-14T14:55:57;0.82;;;0.80;;
47669;SDS011;33408;52.062;11.722;2023-03-14T14:58:26;2.38;;;1.02;;
47669;SDS011;33408;52.062;11.722;2023-03-14T15:00:55;1.20;;;0.90;;